Time;durP1;ratioP1;P1;durP2;ratioP2;P2;SDS_P1;SDS_P2;PMS_P1;PMS_P2;Temp;Humidity;BMP_temperature;BMP_pressure;BME280_temperature;BME280_humidity;BME280_pressure;Samples;Min_cycle;Max_cycle;Signal;HPM_P1;HPM_P2
2021/10/04 00:01:34;;;;;;;7.32;1.00;;;;;;;;;;4391799;32;20575;-78
2021/10/04 00:03:59;;;;;;;3.85;1.00;;;;;;;;;;4390157;32;20146;-78
2021/10/04 00:06:45;;;;;;;7.85;1.25;;;;;;;;;;4390874;32;20189;-78
2021/10/04 00:09:10;;;;;;;3.30;1.02;;;;;;;;;;4391929;32;20475;-78
2021/10/04 00:11:48;;;;;;;;;;;;;;;;;;;;;
2021/10/04 00:14:13;;;;;;;3.97;1.02;;;;;;;;;;4392151;32;20146;-77
2021/10/04 00:16:42;;;;;;;2.80;1.05;;;;;;;;;;4390222;32;20185;-77
2021/10/04 00:19:10;;;;;;;8.55;1.23;;;;;;;;;;4392651;32;20201;-78
2021/10/04 00:21:38;;;;;;;5.30;1.27;;;;;;;;;;4392859;32;20161;-77
2021/10/04 00:24:10;;;;;;;4.30;1.20;;;;;;;;;;4392608;32;20166;-78
2021/10/04 00:26:35;;;;;;;4.57;1.10;;;;;;;;;;4392852;32;20188;-78
2021/10/04 00:29:00;;;;;;;4.32;1.25;;;;;;;;;;4392567;32;20166;-78
2021/10/04 00:31:35;;;;;;;4.15;1.30;;;;;;;;;;4392003;32;20201;-78
2021/10/04 00:34:00;;;;;;;4.03;1.30;;;;;;;;;;4392917;32;20176;-78
2021/10/04 00:36:28;;;;;;;2.62;1.08;;;;;;;;;;4392859;32;20302;-78
2021/10/04 00:39:09;;;;;;;3.08;1.12;;;;;;;;;;4403646;32;20170;-78
2021/10/04 00:41:39;;;;;;;4.32;1.00;;;;;;;;;;4404871;32;20166;-78
2021/10/04 00:44:15;;;;;;;;;;;;;;;;;;;;;
2021/10/04 00:46:40;;;;;;;4.65;1.20;;;;;;;;;;4390559;32;20150;-78
2021/10/04 00:49:06;;;;;;;4.85;1.10;;;;;;;;;;4380681;32;20652;-78
2021/10/04 00:51:31;;;;;;;2.60;1.08;;;;;;;;;;4377151;32;20185;-78
2021/10/04 00:53:57;;;;;;;3.30;1.10;;;;;;;;;;4390591;32;20227;-78
2021/10/04 00:56:25;;;;;;;8.50;1.30;;;;;;;;;;4390003;32;20146;-78
2021/10/04 00:58:52;;;;;;;3.83;1.30;;;;;;;;;;4377137;32;20213;-78
2021/10/04 01:01:17;;;;;;;4.35;1.02;;;;;;;;;;4382306;32;20219;-78
2021/10/04 01:04:02;;;;;;;6.50;1.10;;;;;;;;;;4396432;32;20158;-78
2021/10/04 01:06:27;;;;;;;5.37;1.33;;;;;;;;;;4392215;32;20541;-77
2021/10/04 01:08:53;;;;;;;4.82;1.10;;;;;;;;;;4390157;32;20155;-78
2021/10/04 01:11:21;;;;;;;4.22;0.77;;;;;;;;;;4389934;32;20239;-78
2021/10/04 01:14:08;;;;;;;5.05;1.10;;;;;;;;;;4390994;32;20182;-78
2021/10/04 01:16:44;;;;;;;4.62;1.20;;;;;;;;;;4384801;32;20507;-78
2021/10/04 01:19:26;;;;;;;;;;;;;;;;;;;;;
2021/10/04 01:22:00;;;;;;;2.72;1.00;;;;;;;;;;4396684;32;20154;-78
2021/10/04 01:24:26;;;;;;;8.15;1.27;;;;;;;;;;4377162;32;20677;-78
2021/10/04 01:26:52;;;;;;;4.43;1.10;;;;;;;;;;4387570;32;20235;-78
2021/10/04 01:29:26;;;;;;;3.05;0.98;;;;;;;;;;4388799;32;20162;-77
2021/10/04 01:31:55;;;;;;;3.20;1.10;;;;;;;;;;4391200;32;20602;-78
2021/10/04 01:34:25;;;;;;;4.10;1.05;;;;;;;;;;4391746;32;20174;-78
2021/10/04 01:36:51;;;;;;;6.22;1.52;;;;;;;;;;4405823;32;20138;-77
2021/10/04 01:39:17;;;;;;;2.67;1.12;;;;;;;;;;4391597;32;20542;-78
2021/10/04 01:41:42;;;;;;;5.50;0.98;;;;;;;;;;4391517;32;20629;-78
2021/10/04 01:44:07;;;;;;;3.65;1.02;;;;;;;;;;4392258;32;20226;-78
2021/10/04 01:47:24;;;;;;;2.87;1.00;;;;;;;;;;4391407;32;20162;-79
2021/10/04 01:49:53;;;;;;;1.87;1.02;;;;;;;;;;4382826;32;20192;-79
2021/10/04 01:52:23;;;;;;;4.80;1.12;;;;;;;;;;4390510;32;20165;-78
2021/10/04 01:55:08;;;;;;;;;;;;;;;;;;;;;
2021/10/04 02:00:57;;;;;;;4.82;1.27;;;;;;;;;;4349427;32;20154;-78
2021/10/04 02:03:26;;;;;;;7.40;1.30;;;;;;;;;;4390594;32;20196;-77
2021/10/04 02:06:18;;;;;;;5.90;1.30;;;;;;;;;;4379095;32;20189;-78
2021/10/04 02:09:19;;;;;;;5.40;1.37;;;;;;;;;;4376706;32;20615;-77
2021/10/04 02:12:03;;;;;;;4.43;1.20;;;;;;;;;;4365414;32;20192;-78
2021/10/04 02:14:29;;;;;;;3.22;1.05;;;;;;;;;;4375658;32;20215;-78
2021/10/04 02:17:04;;;;;;;3.92;1.20;;;;;;;;;;4376313;32;20159;-78
2021/10/04 02:19:30;;;;;;;6.37;1.30;;;;;;;;;;4379729;32;20165;-78
2021/10/04 02:21:59;;;;;;;7.55;1.40;;;;;;;;;;4390819;32;20503;-78
2021/10/04 02:24:25;;;;;;;3.95;1.27;;;;;;;;;;4391037;32;20185;-78
2021/10/04 02:26:56;;;;;;;7.07;1.50;;;;;;;;;;4388600;32;20171;-78
2021/10/04 02:29:41;;;;;;;5.57;1.20;;;;;;;;;;4390170;32;20158;-78
2021/10/04 02:32:06;;;;;;;4.10;1.10;;;;;;;;;;4389561;32;20232;-78
2021/10/04 02:34:40;;;;;;;4.03;1.20;;;;;;;;;;4384551;32;20486;-78
2021/10/04 02:37:06;;;;;;;3.35;1.20;;;;;;;;;;4390983;32;20237;-78
2021/10/04 02:39:31;;;;;;;2.35;1.00;;;;;;;;;;4391417;32;20511;-78
2021/10/04 02:42:04;;;;;;;3.53;1.17;;;;;;;;;;4390557;32;20197;-78
2021/10/04 02:44:29;;;;;;;3.95;1.35;;;;;;;;;;4391940;32;20184;-78
2021/10/04 02:46:55;;;;;;;3.47;1.20;;;;;;;;;;4391277;32;20476;-78
2021/10/04 02:49:20;;;;;;;3.25;0.93;;;;;;;;;;4391313;32;20578;-78
2021/10/04 02:51:56;;;;;;;7.28;1.50;;;;;;;;;;4390526;32;20235;-78
2021/10/04 02:54:32;;;;;;;7.55;1.40;;;;;;;;;;4390675;32;20185;-78
2021/10/04 02:56:58;;;;;;;3.95;1.25;;;;;;;;;;4391503;32;20162;-78
2021/10/04 02:59:23;;;;;;;6.03;1.40;;;;;;;;;;4391760;32;20590;-78
2021/10/04 03:01:49;;;;;;;5.78;1.42;;;;;;;;;;4390977;32;20181;-78
2021/10/04 03:04:23;;;;;;;2.85;1.30;;;;;;;;;;4387154;32;20158;-79
2021/10/04 03:10:05;;;;;;;3.62;1.40;;;;;;;;;;4374524;32;20209;-80
2021/10/04 03:13:00;;;;;;;3.37;1.23;;;;;;;;;;4375757;32;20158;-79
2021/10/04 03:15:30;;;;;;;5.47;1.48;;;;;;;;;;4389912;32;20170;-79
2021/10/04 03:18:18;;;;;;;;;;;;;;;;;;;;;
2021/10/04 03:20:50;;;;;;;3.85;1.30;;;;;;;;;;4389839;32;20154;-80
2021/10/04 03:23:38;;;;;;;5.53;1.42;;;;;;;;;;4375708;32;20154;-80
2021/10/04 03:26:04;;;;;;;3.97;1.45;;;;;;;;;;4376982;32;20159;-79
2021/10/04 03:28:33;;;;;;;4.90;1.60;;;;;;;;;;4383990;32;20181;-80
2021/10/04 03:31:11;;;;;;;6.68;1.85;;;;;;;;;;4386156;32;20169;-79
2021/10/04 03:39:17;;;;;;;3.87;1.30;;;;;;;;;;4368214;32;20189;-78
2021/10/04 03:41:42;;;;;;;4.87;1.33;;;;;;;;;;4380659;32;20187;-78
2021/10/04 03:44:31;;;;;;;4.40;1.35;;;;;;;;;;4419133;32;20145;-78
2021/10/04 03:47:02;;;;;;;5.90;1.50;;;;;;;;;;4409611;32;20188;-78
2021/10/04 03:49:37;;;;;;;5.55;1.83;;;;;;;;;;4393530;32;20265;-78
2021/10/04 03:52:26;;;;;;;4.90;1.30;;;;;;;;;;4405307;32;20157;-78
2021/10/04 03:55:19;;;;;;;6.35;1.52;;;;;;;;;;4407587;32;20232;-78
2021/10/04 03:57:44;;;;;;;7.05;1.87;;;;;;;;;;4411988;32;20200;-79
2021/10/04 04:00:31;;;;;;;6.87;1.65;;;;;;;;;;4407915;32;20225;-78
2021/10/04 04:03:04;;;;;;;7.95;1.83;;;;;;;;;;4411412;32;20223;-80
2021/10/04 04:05:30;;;;;;;5.75;1.90;;;;;;;;;;4407035;32;20191;-78
2021/10/04 04:08:05;;;;;;;7.50;1.60;;;;;;;;;;4392941;32;20158;-78
2021/10/04 04:10:30;;;;;;;4.95;1.73;;;;;;;;;;4392997;32;20256;-78
2021/10/04 04:12:55;;;;;;;12.70;2.33;;;;;;;;;;4392847;32;20488;-78
2021/10/04 04:15:30;;;;;;;7.70;1.70;;;;;;;;;;4392786;32;20154;-78
2021/10/04 04:18:07;;;;;;;4.53;1.73;;;;;;;;;;4407134;32;20531;-78
2021/10/04 04:20:35;;;;;;;7.22;2.10;;;;;;;;;;4392861;32;20150;-79
2021/10/04 04:23:01;;;;;;;6.47;2.20;;;;;;;;;;4392512;32;20192;-79
2021/10/04 04:25:29;;;;;;;5.72;1.92;;;;;;;;;;4392727;32;20151;-79
2021/10/04 04:28:08;;;;;;;;;;;;;;;;;;;;;
2021/10/04 04:30:34;;;;;;;7.47;2.00;;;;;;;;;;4396493;32;20158;-79
2021/10/04 04:35:52;;;;;;;7.37;2.12;;;;;;;;;;4344529;33;20467;-78
2021/10/04 04:38:54;;;;;;;4.82;2.40;;;;;;;;;;4369482;32;20265;-78
2021/10/04 04:41:39;;;;;;;;;;;;;;;;;;;;;
2021/10/04 04:44:13;;;;;;;12.30;3.45;;;;;;;;;;4330276;33;20139;-78
2021/10/04 04:46:46;;;;;;;6.47;2.35;;;;;;;;;;4318751;33;20139;-77
2021/10/04 04:49:14;;;;;;;5.90;2.40;;;;;;;;;;4331907;33;20148;-78
2021/10/04 04:51:46;;;;;;;5.65;2.25;;;;;;;;;;4331516;33;20230;-78
2021/10/04 04:57:01;;;;;;;9.77;2.55;;;;;;;;;;4314894;33;20163;-78
2021/10/04 04:59:26;;;;;;;9.85;2.72;;;;;;;;;;4313103;33;20636;-78
2021/10/04 05:01:54;;;;;;;9.98;3.03;;;;;;;;;;4370094;32;20252;-79
2021/10/04 05:04:39;;;;;;;8.13;2.87;;;;;;;;;;4392080;32;20158;-79
2021/10/04 05:07:14;;;;;;;9.13;2.53;;;;;;;;;;4406419;32;20138;-79
2021/10/04 05:09:39;;;;;;;6.32;2.37;;;;;;;;;;4385358;32;20184;-79
2021/10/04 05:12:27;;;;;;;5.62;2.33;;;;;;;;;;4391006;32;20189;-80
2021/10/04 05:14:57;;;;;;;11.00;3.05;;;;;;;;;;4377056;32;20189;-78
2021/10/04 05:17:23;;;;;;;4.37;2.70;;;;;;;;;;4389407;32;20177;-77
2021/10/04 05:19:48;;;;;;;8.00;2.70;;;;;;;;;;4380842;32;20166;-78
2021/10/04 05:22:13;;;;;;;5.45;2.40;;;;;;;;;;4370846;32;20216;-77
2021/10/04 05:24:44;;;;;;;8.15;2.80;;;;;;;;;;4367693;32;20197;-78
2021/10/04 05:29:58;;;;;;;10.73;3.15;;;;;;;;;;4391989;32;20196;-79
2021/10/04 05:32:26;;;;;;;8.55;3.00;;;;;;;;;;4375647;32;20159;-77
2021/10/04 05:34:54;;;;;;;9.60;3.17;;;;;;;;;;4349562;32;20166;-78
2021/10/04 05:37:20;;;;;;;10.52;3.20;;;;;;;;;;4361802;32;20164;-77
2021/10/04 05:39:45;;;;;;;8.48;3.47;;;;;;;;;;4369525;32;20158;-77
2021/10/04 05:42:10;;;;;;;10.80;6.40;;;;;;;;;;4391190;32;20163;-77
2021/10/04 05:44:36;;;;;;;9.98;3.30;;;;;;;;;;4391352;32;20158;-77
2021/10/04 05:47:01;;;;;;;7.93;3.72;;;;;;;;;;4379229;32;20269;-77
2021/10/04 05:49:29;;;;;;;8.32;3.42;;;;;;;;;;4375308;32;20655;-78
2021/10/04 05:51:55;;;;;;;8.30;3.92;;;;;;;;;;4376076;32;20216;-78
2021/10/04 05:54:21;;;;;;;14.55;4.12;;;;;;;;;;4390327;32;20146;-77
2021/10/04 05:56:55;;;;;;;8.40;3.42;;;;;;;;;;4376398;32;20178;-79
2021/10/04 05:59:20;;;;;;;7.43;5.20;;;;;;;;;;4376462;32;20166;-77
2021/10/04 06:01:46;;;;;;;9.50;3.92;;;;;;;;;;4379216;32;20236;-78
2021/10/04 06:04:14;;;;;;;7.40;3.80;;;;;;;;;;4390493;32;20169;-78
2021/10/04 06:06:43;;;;;;;8.93;4.47;;;;;;;;;;4390051;32;20159;-77
2021/10/04 06:09:08;;;;;;;9.70;4.15;;;;;;;;;;4405052;32;20142;-76
2021/10/04 06:11:33;;;;;;;5.40;3.45;;;;;;;;;;4390533;32;20194;-78
2021/10/04 06:14:02;;;;;;;10.32;4.00;;;;;;;;;;4391223;32;20218;-79
2021/10/04 06:16:30;;;;;;;7.40;3.70;;;;;;;;;;4405021;32;20178;-77
2021/10/04 06:18:56;;;;;;;12.23;3.83;;;;;;;;;;4392676;32;20164;-77
2021/10/04 06:21:21;;;;;;;10.05;3.92;;;;;;;;;;4390953;32;20201;-79
2021/10/04 06:23:54;;;;;;;14.63;3.92;;;;;;;;;;4390951;32;20197;-77
2021/10/04 06:26:19;;;;;;;7.87;3.40;;;;;;;;;;4377150;32;20233;-77
2021/10/04 06:28:45;;;;;;;8.88;3.28;;;;;;;;;;4380298;32;20592;-77
2021/10/04 06:31:10;;;;;;;9.40;3.55;;;;;;;;;;4375647;32;20239;-76
2021/10/04 06:33:35;;;;;;;9.75;3.28;;;;;;;;;;4376040;32;20208;-77
2021/10/04 06:36:04;;;;;;;7.87;3.75;;;;;;;;;;4376012;32;20592;-78
2021/10/04 06:38:29;;;;;;;9.25;3.05;;;;;;;;;;4376746;32;20170;-78
2021/10/04 06:40:55;;;;;;;16.02;4.32;;;;;;;;;;4385321;32;20163;-76
2021/10/04 06:43:23;;;;;;;4.78;2.67;;;;;;;;;;4402857;32;20229;-76
2021/10/04 06:45:48;;;;;;;9.55;3.35;;;;;;;;;;4397457;32;20183;-75
2021/10/04 06:48:14;;;;;;;6.87;3.33;;;;;;;;;;4390580;32;20163;-77
2021/10/04 06:50:46;;;;;;;7.25;3.17;;;;;;;;;;4404731;32;20158;-77
2021/10/04 06:53:14;;;;;;;10.73;3.50;;;;;;;;;;4390749;32;20177;-77
2021/10/04 06:55:40;;;;;;;10.75;3.78;;;;;;;;;;4390836;32;20217;-78
2021/10/04 06:58:05;;;;;;;7.62;3.30;;;;;;;;;;4403657;32;20216;-77
2021/10/04 07:00:58;;;;;;;7.70;3.08;;;;;;;;;;4391180;32;20595;-77
2021/10/04 07:03:24;;;;;;;4.55;2.75;;;;;;;;;;4387851;32;20208;-77
2021/10/04 07:06:16;;;;;;;6.28;2.97;;;;;;;;;;4407577;32;20519;-77
2021/10/04 07:08:46;;;;;;;4.87;2.90;;;;;;;;;;4407418;32;20211;-77
2021/10/04 07:11:11;;;;;;;5.87;2.85;;;;;;;;;;4407377;32;20550;-76
2021/10/04 07:13:38;;;;;;;7.45;2.45;;;;;;;;;;4408580;32;20193;-78
2021/10/04 07:16:03;;;;;;;7.65;2.47;;;;;;;;;;4408331;32;20150;-76
2021/10/04 07:18:32;;;;;;;5.65;2.53;;;;;;;;;;4393821;32;20559;-77
2021/10/04 07:20:57;;;;;;;4.78;2.45;;;;;;;;;;4393884;32;20228;-76
2021/10/04 07:23:22;;;;;;;5.40;2.12;;;;;;;;;;4393285;32;20162;-78
2021/10/04 07:25:51;;;;;;;5.32;2.40;;;;;;;;;;4408000;32;20205;-77
2021/10/04 07:28:16;;;;;;;6.00;2.20;;;;;;;;;;4406768;32;20221;-76
2021/10/04 07:30:41;;;;;;;5.75;2.10;;;;;;;;;;4389674;32;20574;-76
2021/10/04 07:33:07;;;;;;;4.15;1.80;;;;;;;;;;4378141;32;20229;-77
2021/10/04 07:36:17;;;;;;;6.10;2.00;;;;;;;;;;4378004;32;20496;-78
2021/10/04 07:38:20;;;;;;;7.80;2.12;;;;;;;;;;4389086;32;20213;-78
2021/10/04 07:40:48;;;;;;;4.30;1.87;;;;;;;;;;4392607;32;20483;-78
2021/10/04 07:43:15;;;;;;;6.97;2.20;;;;;;;;;;4378213;32;20154;-77
2021/10/04 07:45:40;;;;;;;7.87;2.40;;;;;;;;;;4378243;32;20159;-76
2021/10/04 07:48:31;;;;;;;5.95;2.30;;;;;;;;;;4378188;32;20514;-79
2021/10/04 07:51:14;;;;;;;5.28;1.98;;;;;;;;;;4377959;32;20177;-80
2021/10/04 07:53:48;;;;;;;6.43;2.10;;;;;;;;;;4371807;32;20197;-78
2021/10/04 07:59:19;;;;;;;8.45;2.40;;;;;;;;;;4375534;32;20155;-80
2021/10/04 08:01:45;;;;;;;4.07;2.10;;;;;;;;;;4378396;32;20224;-79
2021/10/04 08:04:36;;;;;;;5.80;2.40;;;;;;;;;;4377983;32;20655;-80
2021/10/04 08:07:12;;;;;;;6.65;2.35;;;;;;;;;;4378088;32;20162;-78
2021/10/04 08:09:37;;;;;;;5.18;1.80;;;;;;;;;;4377924;32;20211;-79
2021/10/04 08:12:03;;;;;;;3.37;2.00;;;;;;;;;;4377813;32;21020;-79
2021/10/04 08:14:29;;;;;;;7.40;1.83;;;;;;;;;;4377587;32;20204;-78
2021/10/04 08:16:54;;;;;;;5.20;2.08;;;;;;;;;;4378046;32;20151;-79
2021/10/04 08:19:19;;;;;;;6.75;2.10;;;;;;;;;;4392021;32;20139;-78
2021/10/04 08:21:45;;;;;;;9.10;2.00;;;;;;;;;;4378017;32;20233;-77
2021/10/04 08:24:10;;;;;;;4.70;1.80;;;;;;;;;;4377741;32;20503;-78
2021/10/04 08:26:36;;;;;;;6.05;1.95;;;;;;;;;;4377215;32;20158;-78
2021/10/04 08:29:01;;;;;;;7.43;1.73;;;;;;;;;;4383630;32;20460;-79
2021/10/04 08:31:30;;;;;;;4.37;1.75;;;;;;;;;;4377356;32;20189;-77
2021/10/04 08:34:02;;;;;;;6.05;2.08;;;;;;;;;;4377770;32;20177;-78
2021/10/04 08:36:28;;;;;;;5.12;1.80;;;;;;;;;;4377534;32;20272;-78
2021/10/04 08:39:13;;;;;;;6.15;2.00;;;;;;;;;;4391151;32;20161;-78
2021/10/04 08:41:41;;;;;;;5.15;1.85;;;;;;;;;;4391421;32;20149;-78
2021/10/04 08:44:27;;;;;;;6.50;1.85;;;;;;;;;;4377441;32;20178;-78
2021/10/04 08:47:13;;;;;;;7.15;1.55;;;;;;;;;;4377422;32;20155;-77
2021/10/04 08:52:44;;;;;;;8.35;2.33;;;;;;;;;;4378470;32;20610;-78
2021/10/04 08:55:21;;;;;;;;;;;;;;;;;;;;;
2021/10/04 08:57:53;;;;;;;4.78;1.48;;;;;;;;;;4329294;33;20226;-78
2021/10/04 09:00:26;;;;;;;6.07;1.48;;;;;;;;;;4329413;33;20168;-78
2021/10/04 09:03:11;;;;;;;5.93;1.62;;;;;;;;;;4375482;32;20186;-78
2021/10/04 09:05:56;;;;;;;6.20;1.50;;;;;;;;;;4377194;32;20158;-78
2021/10/04 09:08:25;;;;;;;6.32;1.60;;;;;;;;;;4381440;32;20227;-78
2021/10/04 09:10:55;;;;;;;4.65;1.37;;;;;;;;;;4391505;32;20600;-78
2021/10/04 09:13:21;;;;;;;4.65;1.42;;;;;;;;;;4388506;32;20201;-78
2021/10/04 09:15:47;;;;;;;2.78;1.40;;;;;;;;;;4386233;32;20166;-76
2021/10/04 09:18:16;;;;;;;10.15;1.50;;;;;;;;;;4387793;32;20233;-78
2021/10/04 09:21:05;;;;;;;5.72;1.52;;;;;;;;;;4396168;32;20205;-78
2021/10/04 09:23:36;;;;;;;3.78;1.30;;;;;;;;;;4391415;32;20188;-77
2021/10/04 09:26:03;;;;;;;6.37;1.40;;;;;;;;;;4392068;32;20245;-78
2021/10/04 09:28:43;;;;;;;8.43;1.62;;;;;;;;;;4391757;32;20237;-78
2021/10/04 09:31:47;;;;;;;7.53;1.75;;;;;;;;;;4391596;32;20205;-78
2021/10/04 09:34:16;;;;;;;6.47;1.75;;;;;;;;;;4358871;32;20158;-77
2021/10/04 09:36:45;;;;;;;6.68;2.00;;;;;;;;;;4384219;32;20161;-78
2021/10/04 09:39:15;;;;;;;9.52;1.70;;;;;;;;;;4391910;32;20185;-77
2021/10/04 09:42:01;;;;;;;9.13;1.65;;;;;;;;;;4391275;32;20188;-75
2021/10/04 09:44:27;;;;;;;7.68;1.67;;;;;;;;;;4391434;32;20236;-78
2021/10/04 09:47:15;;;;;;;14.32;2.08;;;;;;;;;;4403458;32;20208;-78
2021/10/04 09:50:07;;;;;;;5.30;1.40;;;;;;;;;;4377743;32;20220;-78
2021/10/04 09:52:39;;;;;;;6.25;1.55;;;;;;;;;;4399618;32;20160;-78
2021/10/04 09:55:14;;;;;;;5.10;1.20;;;;;;;;;;4404988;32;20147;-78
2021/10/04 09:57:39;;;;;;;6.43;1.60;;;;;;;;;;4391568;32;20161;-78
2021/10/04 10:00:10;;;;;;;6.10;1.60;;;;;;;;;;4403330;32;20193;-78
2021/10/04 10:02:36;;;;;;;5.35;1.40;;;;;;;;;;4376368;32;20178;-77
2021/10/04 10:05:13;;;;;;;6.18;1.67;;;;;;;;;;4376229;32;20173;-78
2021/10/04 10:07:41;;;;;;;8.18;1.70;;;;;;;;;;4376250;32;20540;-78
2021/10/04 10:10:33;;;;;;;5.30;1.65;;;;;;;;;;4385047;32;20233;-78
2021/10/04 10:12:58;;;;;;;6.32;1.70;;;;;;;;;;4376527;32;20229;-78
2021/10/04 10:15:50;;;;;;;5.70;1.52;;;;;;;;;;4375410;32;20550;-79
2021/10/04 10:18:28;;;;;;;8.45;1.55;;;;;;;;;;4375972;32;20174;-76
2021/10/04 10:21:07;;;;;;;4.70;1.75;;;;;;;;;;4389795;32;20241;-79
2021/10/04 10:23:46;;;;;;;7.03;1.70;;;;;;;;;;4391561;32;20180;-79
2021/10/04 10:26:25;;;;;;;6.43;1.77;;;;;;;;;;4403885;32;20197;-79
2021/10/04 10:29:12;;;;;;;8.10;2.53;;;;;;;;;;4399153;32;20165;-79
2021/10/04 10:32:10;;;;;;;10.40;2.00;;;;;;;;;;4381562;32;20223;-79
2021/10/04 10:34:55;;;;;;;;;;;;;;;;;;;;;
2021/10/04 10:37:22;;;;;;;10.18;1.95;;;;;;;;;;4391958;32;20158;-78
2021/10/04 10:40:39;;;;;;;6.18;1.87;;;;;;;;;;4381503;32;20194;-78
2021/10/04 10:43:40;;;;;;;6.47;1.90;;;;;;;;;;4404602;32;20193;-79
2021/10/04 10:46:37;;;;;;;9.80;1.75;;;;;;;;;;4375923;32;20154;-78
2021/10/04 10:49:07;;;;;;;7.62;1.40;;;;;;;;;;4393305;32;20161;-79
2021/10/04 10:51:35;;;;;;;7.72;1.85;;;;;;;;;;4393945;32;20499;-79
2021/10/04 10:54:24;;;;;;;8.18;2.47;;;;;;;;;;4394605;32;20153;-80
2021/10/04 10:57:01;;;;;;;7.10;1.70;;;;;;;;;;4390741;32;20248;-79
2021/10/04 10:59:27;;;;;;;12.52;1.75;;;;;;;;;;4406942;32;20195;-80
2021/10/04 11:01:55;;;;;;;7.70;1.70;;;;;;;;;;4393612;32;20615;-78
2021/10/04 11:04:49;;;;;;;7.90;1.42;;;;;;;;;;4393829;32;20172;-79
2021/10/04 11:07:33;;;;;;;5.37;1.65;;;;;;;;;;4393720;32;20227;-79
2021/10/04 11:10:23;;;;;;;8.60;1.37;;;;;;;;;;4393639;32;20193;-79
2021/10/04 11:13:10;;;;;;;7.87;1.70;;;;;;;;;;4393471;32;20207;-79
2021/10/04 11:15:46;;;;;;;6.12;1.62;;;;;;;;;;4392907;32;20204;-80
2021/10/04 11:18:11;;;;;;;8.80;1.50;;;;;;;;;;4389819;32;20219;-78
2021/10/04 11:20:37;;;;;;;7.03;1.58;;;;;;;;;;4393626;32;20165;-79
2021/10/04 11:23:13;;;;;;;6.95;1.80;;;;;;;;;;4393354;32;20185;-79
2021/10/04 11:25:50;;;;;;;7.68;1.77;;;;;;;;;;4408315;32;20168;-81
2021/10/04 11:28:17;;;;;;;9.30;1.65;;;;;;;;;;4393450;32;20169;-80
2021/10/04 11:30:56;;;;;;;8.30;1.33;;;;;;;;;;4391121;32;20194;-79
2021/10/04 11:33:23;;;;;;;11.20;2.15;;;;;;;;;;4378109;32;20249;-79
2021/10/04 11:36:01;;;;;;;9.98;2.00;;;;;;;;;;4388821;32;20165;-79
2021/10/04 11:38:28;;;;;;;8.43;1.75;;;;;;;;;;4393398;32;20297;-80
2021/10/04 11:40:55;;;;;;;8.65;1.80;;;;;;;;;;4406898;32;20134;-79
2021/10/04 11:43:39;;;;;;;;;;;;;;;;;;;;;
2021/10/04 11:46:34;;;;;;;6.50;1.52;;;;;;;;;;4392283;32;20139;-79
2021/10/04 11:49:01;;;;;;;8.13;1.67;;;;;;;;;;4390854;32;20154;-80
2021/10/04 11:51:44;;;;;;;;;;;;;;;;;;;;;
2021/10/04 11:54:12;;;;;;;8.63;1.30;;;;;;;;;;4388035;32;20728;-80
2021/10/04 11:56:41;;;;;;;7.37;1.60;;;;;;;;;;4378282;32;20200;-81
2021/10/04 11:59:09;;;;;;;6.28;1.77;;;;;;;;;;4390187;32;20178;-80
2021/10/04 12:02:00;;;;;;;6.97;1.67;;;;;;;;;;4365281;32;20158;-79
2021/10/04 12:04:40;;;;;;;9.00;1.90;;;;;;;;;;4376621;32;20148;-79
2021/10/04 12:07:14;;;;;;;4.53;1.65;;;;;;;;;;4376615;32;20153;-80
2021/10/04 12:09:40;;;;;;;9.60;1.55;;;;;;;;;;4363154;32;20600;-79
2021/10/04 12:12:37;;;;;;;10.77;1.92;;;;;;;;;;4377265;32;20177;-81
2021/10/04 12:15:05;;;;;;;8.45;1.55;;;;;;;;;;4374999;32;20487;-81
2021/10/04 12:17:34;;;;;;;5.12;1.27;;;;;;;;;;4376135;32;20135;-80
2021/10/04 12:20:03;;;;;;;7.80;1.42;;;;;;;;;;4362652;32;20224;-80
2021/10/04 12:22:35;;;;;;;7.20;1.45;;;;;;;;;;4362789;32;20195;-79
2021/10/04 12:28:29;;;;;;;8.43;1.20;;;;;;;;;;4402667;32;20153;-79
2021/10/04 12:31:15;;;;;;;;;;;;;;;;;;;;;
2021/10/04 12:34:13;;;;;;;5.93;1.42;;;;;;;;;;4392262;32;20146;-80
2021/10/04 12:36:40;;;;;;;6.87;1.35;;;;;;;;;;4374145;32;20201;-79
2021/10/04 12:39:05;;;;;;;4.40;1.20;;;;;;;;;;4390888;32;20189;-80
2021/10/04 12:41:41;;;;;;;5.68;1.15;;;;;;;;;;4377466;32;20614;-79
2021/10/04 12:44:14;;;;;;;7.30;1.60;;;;;;;;;;4384351;32;20195;-79
2021/10/04 12:46:50;;;;;;;6.68;1.20;;;;;;;;;;4387300;32;20154;-80
2021/10/04 12:49:21;;;;;;;6.72;1.20;;;;;;;;;;4377423;32;20205;-81
2021/10/04 12:51:51;;;;;;;7.07;1.20;;;;;;;;;;4382691;32;20185;-78
2021/10/04 12:54:26;;;;;;;7.70;1.48;;;;;;;;;;4393759;32;20208;-79
2021/10/04 12:57:30;;;;;;;6.72;2.03;;;;;;;;;;4376943;32;20529;-78
2021/10/04 12:59:59;;;;;;;5.47;1.02;;;;;;;;;;4391477;32;20625;-81
2021/10/04 13:03:11;;;;;;;6.90;1.17;;;;;;;;;;4393380;32;20200;-81
2021/10/04 13:06:18;;;;;;;;;;;;;;;;;;;;;
2021/10/04 13:14:38;;;;;;;5.18;1.27;;;;;;;;;;4339652;33;20147;-80
2021/10/04 13:17:36;;;;;;;;;;;;;;;;;;;;;
2021/10/04 13:20:10;;;;;;;4.97;1.17;;;;;;;;;;4380596;32;20166;-79
2021/10/04 13:22:41;;;;;;;3.55;0.90;;;;;;;;;;4391824;32;20185;-79
2021/10/04 13:25:10;;;;;;;5.95;1.20;;;;;;;;;;4391755;32;20180;-81
2021/10/04 13:27:36;;;;;;;5.75;1.15;;;;;;;;;;4392193;32;20192;-79
2021/10/04 13:30:10;;;;;;;7.28;1.40;;;;;;;;;;4391573;32;20175;-80
2021/10/04 13:32:36;;;;;;;6.70;1.10;;;;;;;;;;4391110;32;20203;-78
2021/10/04 13:35:02;;;;;;;4.85;1.05;;;;;;;;;;4391063;32;20162;-79
2021/10/04 13:37:30;;;;;;;5.12;1.15;;;;;;;;;;4391048;32;20646;-79
2021/10/04 13:39:57;;;;;;;3.25;0.90;;;;;;;;;;4404629;32;20142;-78
2021/10/04 13:42:27;;;;;;;5.60;1.15;;;;;;;;;;4390565;32;20208;-79
2021/10/04 13:44:52;;;;;;;4.90;0.98;;;;;;;;;;4390819;32;20177;-79
2021/10/04 13:47:17;;;;;;;5.00;1.20;;;;;;;;;;4391331;32;20194;-77
2021/10/04 13:49:43;;;;;;;4.28;1.05;;;;;;;;;;4391358;32;20204;-78
2021/10/04 13:52:12;;;;;;;10.95;1.37;;;;;;;;;;4378913;32;20227;-79
2021/10/04 13:54:37;;;;;;;5.30;1.48;;;;;;;;;;4391456;32;20214;-78
2021/10/04 13:57:08;;;;;;;3.67;1.00;;;;;;;;;;4392021;32;20220;-78
2021/10/04 13:59:34;;;;;;;8.18;1.30;;;;;;;;;;4391515;32;20188;-80
2021/10/04 14:01:59;;;;;;;3.20;0.93;;;;;;;;;;4379224;32;20497;-77
2021/10/04 14:04:25;;;;;;;2.78;1.00;;;;;;;;;;4391153;32;20186;-79
2021/10/04 14:06:51;;;;;;;6.75;1.15;;;;;;;;;;4391677;32;20166;-79
2021/10/04 14:09:16;;;;;;;3.55;0.90;;;;;;;;;;4391230;32;20550;-78
2021/10/04 14:11:42;;;;;;;3.85;1.15;;;;;;;;;;4389120;32;20166;-76
2021/10/04 14:14:07;;;;;;;3.75;1.00;;;;;;;;;;4405241;32;20169;-78
2021/10/04 14:16:35;;;;;;;6.30;1.20;;;;;;;;;;4391485;32;20158;-78
2021/10/04 14:19:06;;;;;;;4.85;1.15;;;;;;;;;;4391202;32;20158;-79
2021/10/04 14:21:44;;;;;;;5.20;1.10;;;;;;;;;;4391614;32;20213;-78
2021/10/04 14:24:09;;;;;;;4.72;1.17;;;;;;;;;;4391105;32;20157;-77
2021/10/04 14:26:40;;;;;;;5.75;1.37;;;;;;;;;;4391391;32;20219;-78
2021/10/04 14:29:16;;;;;;;4.93;1.20;;;;;;;;;;4375936;32;20155;-78
2021/10/04 14:32:01;;;;;;;5.93;1.20;;;;;;;;;;4388801;32;20561;-78
2021/10/04 14:34:27;;;;;;;4.28;1.08;;;;;;;;;;4363553;32;20163;-79
2021/10/04 14:36:52;;;;;;;6.72;1.30;;;;;;;;;;4375837;32;20192;-79
2021/10/04 14:39:21;;;;;;;4.87;0.90;;;;;;;;;;4376084;32;20218;-79
2021/10/04 14:41:47;;;;;;;6.95;1.35;;;;;;;;;;4376024;32;20166;-78
2021/10/04 14:44:17;;;;;;;8.38;1.98;;;;;;;;;;4389923;32;20173;-78
2021/10/04 14:46:45;;;;;;;3.85;1.20;;;;;;;;;;4389524;32;20244;-79
2021/10/04 14:49:15;;;;;;;5.93;1.30;;;;;;;;;;4389259;32;20161;-79
2021/10/04 14:51:41;;;;;;;5.53;1.33;;;;;;;;;;4375533;32;20495;-78
2021/10/04 14:54:08;;;;;;;5.25;1.60;;;;;;;;;;4387687;32;20181;-80
2021/10/04 14:56:39;;;;;;;4.43;1.25;;;;;;;;;;4389706;32;20213;-79
2021/10/04 14:59:04;;;;;;;5.95;1.73;;;;;;;;;;4388228;32;20220;-80
2021/10/04 15:01:31;;;;;;;4.97;1.37;;;;;;;;;;4375646;32;20476;-77
2021/10/04 15:03:58;;;;;;;8.35;1.50;;;;;;;;;;4387866;32;20170;-78
2021/10/04 15:06:23;;;;;;;4.35;1.50;;;;;;;;;;4389324;32;20138;-79
2021/10/04 15:08:49;;;;;;;5.45;1.20;;;;;;;;;;4388088;32;20166;-79
2021/10/04 15:11:14;;;;;;;6.18;1.73;;;;;;;;;;4389479;32;20174;-78
2021/10/04 15:13:39;;;;;;;6.22;1.95;;;;;;;;;;4389293;32;20131;-79
2021/10/04 15:16:05;;;;;;;5.32;1.58;;;;;;;;;;4388150;32;20596;-78
2021/10/04 15:18:30;;;;;;;7.00;1.70;;;;;;;;;;4389279;32;20165;-79
2021/10/04 15:20:55;;;;;;;4.93;1.48;;;;;;;;;;4388814;32;20560;-78
2021/10/04 15:23:27;;;;;;;4.90;1.37;;;;;;;;;;4392110;32;20177;-79
2021/10/04 15:25:54;;;;;;;9.75;1.70;;;;;;;;;;4390886;32;20201;-79
2021/10/04 15:28:30;;;;;;;6.05;1.65;;;;;;;;;;4390635;32;20171;-79
2021/10/04 15:30:55;;;;;;;7.70;1.60;;;;;;;;;;4391695;32;20169;-79
2021/10/04 15:33:23;;;;;;;5.07;1.45;;;;;;;;;;4391173;32;20478;-79
2021/10/04 15:35:50;;;;;;;5.05;1.67;;;;;;;;;;4403686;32;20162;-80
2021/10/04 15:38:16;;;;;;;5.87;1.70;;;;;;;;;;4390648;32;20178;-80
2021/10/04 15:40:42;;;;;;;7.40;1.83;;;;;;;;;;4390599;32;20167;-79
2021/10/04 15:43:07;;;;;;;6.55;1.40;;;;;;;;;;4390454;32;20657;-79
2021/10/04 15:45:38;;;;;;;6.95;1.30;;;;;;;;;;4391011;32;20189;-80
2021/10/04 15:48:04;;;;;;;8.45;1.52;;;;;;;;;;4391685;32;20139;-79
2021/10/04 15:50:29;;;;;;;6.22;1.48;;;;;;;;;;4395369;32;21535;-79
2021/10/04 15:52:54;;;;;;;7.30;1.70;;;;;;;;;;4392998;32;20607;-79
2021/10/04 15:55:20;;;;;;;9.68;1.67;;;;;;;;;;4398385;32;20166;-78
2021/10/04 15:57:46;;;;;;;6.05;1.30;;;;;;;;;;4393137;32;20229;-78
2021/10/04 16:00:13;;;;;;;5.70;1.27;;;;;;;;;;4417404;32;20512;-79
2021/10/04 16:02:38;;;;;;;6.10;1.58;;;;;;;;;;4422140;32;20208;-80